createdAt,value
2023-02-27T00:02:16.180Z,67.54
2023-02-27T00:05:19.612Z,67.78
2023-02-27T00:08:22.852Z,68.07
2023-02-27T00:11:25.152Z,67.92
2023-02-27T00:14:27.739Z,67.25
2023-02-27T00:17:30.675Z,67.47
2023-02-27T00:20:37.949Z,67.07
2023-02-27T00:23:39.990Z,66.80
2023-02-27T00:26:42.250Z,66.99
2023-02-27T00:29:44.266Z,66.41
2023-02-27T00:32:47.192Z,66.97
2023-02-27T00:36:00.085Z,67.20
2023-02-27T00:39:03.053Z,67.19
2023-02-27T00:42:05.066Z,67.11
2023-02-27T00:45:08.038Z,66.77
2023-02-27T00:48:10.284Z,66.97
2023-02-27T00:51:13.409Z,67.54
2023-02-27T00:54:15.554Z,66.97
2023-02-27T00:57:17.810Z,67.27
2023-02-27T01:00:19.950Z,67.09
2023-02-27T01:03:22.111Z,67.45
2023-02-27T01:06:24.233Z,67.73
2023-02-27T01:09:26.264Z,67.46
2023-02-27T01:12:28.429Z,67.49
2023-02-27T01:15:30.507Z,67.58
2023-02-27T01:18:32.472Z,68.22
2023-02-27T01:21:34.733Z,67.82
2023-02-27T01:24:36.790Z,68.80
2023-02-27T01:27:38.787Z,68.79
2023-02-27T01:30:42.074Z,69.25
2023-02-27T01:33:44.160Z,69.21
2023-02-27T01:36:46.194Z,70.31
2023-02-27T01:39:51.172Z,70.06
2023-02-27T01:42:53.115Z,70.07
2023-02-27T01:45:55.655Z,70.43
2023-02-27T01:49:25.935Z,69.74
2023-02-27T01:52:29.368Z,69.18
2023-02-27T01:55:37.983Z,69.27
2023-02-27T01:58:41.784Z,69.33
2023-02-27T02:01:44.043Z,69.63
2023-02-27T02:04:47.005Z,69.37
2023-02-27T02:07:50.408Z,69.17
2023-02-27T02:10:54.637Z,70.25
2023-02-27T02:13:59.170Z,70.38
2023-02-27T02:17:20.081Z,70.39
2023-02-27T02:20:30.826Z,69.25
2023-02-27T02:23:50.742Z,69.06
2023-02-27T02:26:58.376Z,69.46
2023-02-27T02:30:05.965Z,68.82
2023-02-27T02:33:37.998Z,69.08
2023-02-27T02:36:42.977Z,68.61
2023-02-27T02:39:53.759Z,68.56
2023-02-27T02:43:21.389Z,67.53
2023-02-27T02:47:02.124Z,67.38
2023-02-27T02:50:16.127Z,67.78
2023-02-27T02:53:25.059Z,67.76
2023-02-27T02:56:38.004Z,67.32
2023-02-27T03:00:12.880Z,67.59
2023-02-27T03:03:37.022Z,68.35
2023-02-27T03:06:45.180Z,67.91
2023-02-27T03:09:57.538Z,68.53
2023-02-27T03:13:05.452Z,68.03
2023-02-27T03:16:14.740Z,68.10
2023-02-27T03:19:25.683Z,68.38
2023-02-27T03:22:35.677Z,68.29
2023-02-27T03:25:39.164Z,67.97
2023-02-27T03:28:52.478Z,69.06
2023-02-27T03:32:05.074Z,68.65
2023-02-27T03:35:08.130Z,67.25
2023-02-27T03:38:23.082Z,67.54
2023-02-27T03:41:35.238Z,67.14
2023-02-27T03:45:00.726Z,67.33
2023-02-27T03:48:04.312Z,67.11
2023-02-27T03:51:06.421Z,67.33
2023-02-27T03:54:20.910Z,68.31
2023-02-27T03:57:23.025Z,68.79
2023-02-27T04:00:26.804Z,68.46
2023-02-27T04:03:30.613Z,67.56
2023-02-27T04:06:53.057Z,67.83
2023-02-27T04:10:17.761Z,68.21
2023-02-27T04:13:51.918Z,68.00
2023-02-27T04:17:16.501Z,68.43
2023-02-27T04:20:33.933Z,68.38
2023-02-27T04:23:51.196Z,68.50
2023-02-27T04:26:58.999Z,68.03
2023-02-27T04:30:34.555Z,67.63
2023-02-27T04:33:42.358Z,67.52
2023-02-27T04:36:59.502Z,67.09
2023-02-27T04:40:07.948Z,69.48
2023-02-27T04:43:15.021Z,79.90
2023-02-27T04:46:20.613Z,79.01
2023-02-27T04:49:31.483Z,81.59
2023-02-27T04:52:40.899Z,82.87
2023-02-27T04:55:48.138Z,84.41
2023-02-27T04:58:55.274Z,85.79
2023-02-27T05:02:02.128Z,86.78
2023-02-27T05:05:11.162Z,88.53
2023-02-27T05:08:22.881Z,88.96
2023-02-27T05:11:43.926Z,88.48
2023-02-27T05:14:53.005Z,94.71
2023-02-27T05:18:04.621Z,94.50
2023-02-27T05:21:28.339Z,95.55
2023-02-27T05:24:37.365Z,97.66
2023-02-27T05:27:59.360Z,98.80
2023-02-27T05:31:14.614Z,100.00
2023-02-27T05:34:16.652Z,99.16
2023-02-27T05:37:25.463Z,98.61
2023-02-27T05:40:36.288Z,97.79
2023-02-27T05:43:44.522Z,97.93
2023-02-27T05:46:49.897Z,96.99
2023-02-27T05:49:57.367Z,92.87
2023-02-27T05:53:03.968Z,93.29
2023-02-27T05:56:08.575Z,94.49
2023-02-27T05:59:17.689Z,97.93
2023-02-27T06:02:19.953Z,95.90
2023-02-27T06:05:23.178Z,96.41
2023-02-27T06:08:25.765Z,95.33
2023-02-27T06:11:27.773Z,94.19
2023-02-27T06:14:29.871Z,94.06
2023-02-27T06:17:31.862Z,93.16
2023-02-27T06:20:34.506Z,93.80
2023-02-27T06:23:36.514Z,95.01
2023-02-27T06:26:38.442Z,90.70
2023-02-27T06:29:40.644Z,86.96
2023-02-27T06:32:42.969Z,80.96
2023-02-27T06:35:47.635Z,79.62
2023-02-27T06:38:49.686Z,82.03
2023-02-27T06:41:51.828Z,80.48
2023-02-27T06:44:53.984Z,78.93
2023-02-27T06:47:56.033Z,78.37
2023-02-27T06:50:58.288Z,79.24
2023-02-27T06:54:00.181Z,75.42
2023-02-27T06:57:02.157Z,76.80
2023-02-27T07:00:07.269Z,75.94
2023-02-27T07:03:10.269Z,71.52
2023-02-27T07:06:12.729Z,69.97
2023-02-27T07:09:17.036Z,70.57
2023-02-27T07:12:21.193Z,69.75
2023-02-27T07:15:23.386Z,65.76
2023-02-27T07:18:25.765Z,66.64
2023-02-27T07:21:27.894Z,69.19
2023-02-27T07:24:29.847Z,67.81
2023-02-27T07:27:32.965Z,65.51
2023-02-27T07:30:35.032Z,65.73
2023-02-27T07:33:37.251Z,64.74
2023-02-27T07:36:39.509Z,62.17
2023-02-27T07:39:41.589Z,62.60
2023-02-27T07:42:43.869Z,64.40
2023-02-27T07:45:46.664Z,61.36
2023-02-27T07:48:48.721Z,61.65
2023-02-27T07:51:50.982Z,63.78
2023-02-27T07:54:53.061Z,61.33
2023-02-27T07:57:55.115Z,61.00
2023-02-27T08:00:57.208Z,62.94
2023-02-27T08:03:59.168Z,62.53
2023-02-27T08:07:01.135Z,60.44
2023-02-27T08:10:06.693Z,61.68
2023-02-27T08:13:11.109Z,62.84
2023-02-27T08:16:14.819Z,59.90
2023-02-27T08:19:16.857Z,61.38
2023-02-27T08:22:18.848Z,62.40
2023-02-27T08:25:21.631Z,59.61
2023-02-27T08:28:23.827Z,60.28
2023-02-27T08:31:25.999Z,61.32
2023-02-27T08:34:28.524Z,59.56
2023-02-27T08:37:31.022Z,58.00
2023-02-27T08:40:33.097Z,58.23
2023-02-27T08:43:35.106Z,61.45
2023-02-27T08:46:37.138Z,55.58
2023-02-27T08:49:39.090Z,56.31
2023-02-27T08:52:41.347Z,59.32
2023-02-27T08:55:43.842Z,56.66
2023-02-27T08:58:45.815Z,55.89
2023-02-27T09:01:47.963Z,57.03
2023-02-27T09:04:50.022Z,55.58
2023-02-27T09:07:52.168Z,55.07
2023-02-27T09:10:57.770Z,54.82
2023-02-27T09:14:01.160Z,56.93
2023-02-27T09:17:03.671Z,53.08
2023-02-27T09:20:09.437Z,53.07
2023-02-27T09:23:11.839Z,55.97
2023-02-27T09:26:13.918Z,53.92
2023-02-27T09:29:16.107Z,53.99
2023-02-27T09:32:18.332Z,54.97
2023-02-27T09:35:20.880Z,56.67
2023-02-27T09:38:23.066Z,53.90
2023-02-27T09:41:52.674Z,54.60
2023-02-27T09:45:07.651Z,57.32
2023-02-27T09:48:28.863Z,58.08
2023-02-27T09:51:31.312Z,52.63
2023-02-27T09:54:34.446Z,54.10
2023-02-27T09:57:58.499Z,56.67
2023-02-27T10:01:22.153Z,52.67
2023-02-27T10:04:59.277Z,53.55
2023-02-27T10:08:17.121Z,56.36
2023-02-27T10:11:43.702Z,59.09
2023-02-27T10:15:26.887Z,54.21
2023-02-27T10:18:31.079Z,58.79
2023-02-27T10:21:42.290Z,60.19
2023-02-27T10:24:52.064Z,56.53
2023-02-27T10:27:57.250Z,54.97
2023-02-27T10:31:02.284Z,57.49
2023-02-27T10:34:04.504Z,59.55
2023-02-27T10:37:08.008Z,60.29
2023-02-27T10:40:15.444Z,62.49
2023-02-27T10:43:19.356Z,63.94
2023-02-27T10:46:35.505Z,68.80
2023-02-27T10:49:38.732Z,69.95
2023-02-27T10:53:02.448Z,72.35
2023-02-27T10:56:07.441Z,77.72
2023-02-27T10:59:20.518Z,77.45
2023-02-27T11:02:26.714Z,78.29
2023-02-27T11:05:30.375Z,78.52
2023-02-27T11:08:34.214Z,76.44
2023-02-27T11:11:38.176Z,74.21
2023-02-27T11:14:54.919Z,74.50
2023-02-27T11:18:28.760Z,62.16
2023-02-27T11:21:31.406Z,49.83
2023-02-27T11:24:34.344Z,46.58
2023-02-27T11:27:36.699Z,45.54
2023-02-27T11:30:39.799Z,44.12
2023-02-27T11:33:50.957Z,43.54
2023-02-27T11:37:30.934Z,42.71
2023-02-27T11:40:37.421Z,42.32
2023-02-27T11:43:51.204Z,42.06
2023-02-27T11:47:14.018Z,44.56
2023-02-27T11:50:42.010Z,45.09
2023-02-27T11:54:05.724Z,49.62
2023-02-27T11:57:25.746Z,52.71
2023-02-27T12:00:33.962Z,50.82
2023-02-27T12:03:54.690Z,49.16
2023-02-27T12:07:06.042Z,49.73
2023-02-27T12:10:18.198Z,48.21
2023-02-27T12:13:29.308Z,50.18
2023-02-27T12:16:42.472Z,50.37
2023-02-27T12:19:55.943Z,48.77
2023-02-27T12:22:58.464Z,51.03
2023-02-27T12:26:07.842Z,54.00
2023-02-27T12:29:19.307Z,50.39
2023-02-27T12:32:43.178Z,51.44
2023-02-27T12:35:51.041Z,53.03
2023-02-27T12:38:53.706Z,50.81
2023-02-27T12:42:06.029Z,52.25
2023-02-27T12:45:35.178Z,53.12
2023-02-27T12:49:25.341Z,53.05
2023-02-27T12:52:48.812Z,54.84
2023-02-27T12:56:19.020Z,51.31
2023-02-27T12:59:29.810Z,52.46
2023-02-27T13:03:15.253Z,53.08
2023-02-27T13:06:33.399Z,51.84
2023-02-27T13:09:38.016Z,54.55
2023-02-27T13:13:03.982Z,55.12
2023-02-27T13:16:36.513Z,52.41
2023-02-27T13:19:59.919Z,55.53
2023-02-27T13:23:19.991Z,55.01
2023-02-27T13:26:52.141Z,55.61
2023-02-27T13:30:20.879Z,57.13
2023-02-27T13:33:40.811Z,55.33
2023-02-27T13:37:01.547Z,56.28
2023-02-27T13:40:06.033Z,56.54
2023-02-27T13:43:52.208Z,53.08
2023-02-27T13:46:54.607Z,54.72
2023-02-27T13:49:58.871Z,54.40
2023-02-27T13:53:10.190Z,53.72
2023-02-27T13:56:22.424Z,54.90
2023-02-27T13:59:30.138Z,53.38
2023-02-27T14:02:58.198Z,52.24
2023-02-27T14:06:04.309Z,54.78
2023-02-27T14:09:15.354Z,51.70
2023-02-27T14:12:46.140Z,51.50
2023-02-27T14:15:54.384Z,53.25
2023-02-27T14:19:01.217Z,52.41
2023-02-27T14:22:11.981Z,52.89
2023-02-27T14:25:28.998Z,54.04
2023-02-27T14:28:45.570Z,51.03
2023-02-27T14:31:48.734Z,51.73
2023-02-27T14:34:57.693Z,51.62
2023-02-27T14:38:17.137Z,50.24
2023-02-27T14:41:51.764Z,53.29
2023-02-27T14:44:54.728Z,51.31
2023-02-27T14:47:57.748Z,51.31
2023-02-27T14:51:02.465Z,54.76
2023-02-27T14:54:15.116Z,51.55
2023-02-27T14:57:24.234Z,54.22
2023-02-27T15:00:34.174Z,55.83
2023-02-27T15:03:42.136Z,51.66
2023-02-27T15:06:48.030Z,52.30
2023-02-27T15:09:55.417Z,55.88
2023-02-27T15:13:01.020Z,54.07
2023-02-27T15:16:19.101Z,55.91
2023-02-27T15:19:25.752Z,67.75
2023-02-27T15:22:38.829Z,71.94
2023-02-27T15:25:42.921Z,73.98
2023-02-27T15:28:45.237Z,73.34
2023-02-27T15:31:48.215Z,62.61
2023-02-27T15:34:52.578Z,62.05
2023-02-27T15:37:57.441Z,61.80
2023-02-27T15:41:05.074Z,62.61
2023-02-27T15:44:07.633Z,61.42
2023-02-27T15:47:23.039Z,62.62
2023-02-27T15:50:28.677Z,63.29
2023-02-27T15:53:34.203Z,63.89
2023-02-27T15:56:38.978Z,64.54
2023-02-27T15:59:44.337Z,64.71
2023-02-27T16:02:50.377Z,64.43
2023-02-27T16:05:53.938Z,64.69
2023-02-27T16:09:28.666Z,63.68
2023-02-27T16:12:39.914Z,64.39
2023-02-27T16:15:42.093Z,64.37
2023-02-27T16:18:51.324Z,64.73
2023-02-27T16:22:16.326Z,64.07
2023-02-27T16:25:20.499Z,64.33
2023-02-27T16:28:24.016Z,66.39
2023-02-27T16:31:33.789Z,65.46
2023-02-27T16:34:45.551Z,66.01
2023-02-27T16:37:50.558Z,66.39
2023-02-27T16:40:53.842Z,65.59
2023-02-27T16:43:56.352Z,66.43
2023-02-27T16:47:02.237Z,67.14
2023-02-27T16:50:04.865Z,67.40
2023-02-27T16:53:08.134Z,69.27
2023-02-27T16:56:38.392Z,68.64
2023-02-27T16:59:41.228Z,69.16
2023-02-27T17:02:43.347Z,68.36
2023-02-27T17:06:02.482Z,69.37
2023-02-27T17:09:05.626Z,69.63
2023-02-27T17:12:07.766Z,68.51
2023-02-27T17:15:10.521Z,68.81
2023-02-27T17:18:12.624Z,68.12
2023-02-27T17:21:14.691Z,68.72
2023-02-27T17:24:16.854Z,68.80
2023-02-27T17:27:18.845Z,70.08
2023-02-27T17:30:22.715Z,71.36
2023-02-27T17:33:34.049Z,74.08
2023-02-27T17:36:36.502Z,81.35
2023-02-27T17:39:39.241Z,92.59
2023-02-27T17:42:41.501Z,90.00
2023-02-27T17:45:44.201Z,91.27
2023-02-27T17:48:51.045Z,91.57
2023-02-27T17:51:53.130Z,89.17
2023-02-27T17:54:55.859Z,87.37
2023-02-27T17:58:00.028Z,84.25
2023-02-27T18:01:07.134Z,84.18
2023-02-27T18:04:11.527Z,82.29
2023-02-27T18:07:13.907Z,80.72
2023-02-27T18:10:16.388Z,79.01
2023-02-27T18:13:21.961Z,78.37
2023-02-27T18:16:24.269Z,76.51
2023-02-27T18:19:27.096Z,75.65
2023-02-27T18:22:30.086Z,74.30
2023-02-27T18:25:36.407Z,73.71
2023-02-27T18:28:38.445Z,74.25
2023-02-27T18:31:44.916Z,72.63
2023-02-27T18:34:47.166Z,72.14
2023-02-27T18:37:49.258Z,70.72
2023-02-27T18:40:51.314Z,71.54
2023-02-27T18:43:54.149Z,70.07
2023-02-27T18:46:57.714Z,71.10
2023-02-27T18:50:00.174Z,70.11
2023-02-27T18:53:02.398Z,69.61
2023-02-27T18:56:07.570Z,69.55
2023-02-27T18:59:12.195Z,69.87
2023-02-27T19:02:16.827Z,69.74
2023-02-27T19:05:19.385Z,69.14
2023-02-27T19:08:21.534Z,69.18
2023-02-27T19:11:34.050Z,68.83
2023-02-27T19:14:36.545Z,70.26
2023-02-27T19:17:41.702Z,69.97
2023-02-27T19:20:43.973Z,68.46
2023-02-27T19:23:46.046Z,68.62
2023-02-27T19:26:48.931Z,68.33
2023-02-27T19:29:51.565Z,68.62
2023-02-27T19:32:55.054Z,68.55
2023-02-27T19:35:58.606Z,67.65
2023-02-27T19:39:02.081Z,66.99
2023-02-27T19:42:04.134Z,67.40
2023-02-27T19:45:06.989Z,66.05
2023-02-27T19:48:10.419Z,67.40
2023-02-27T19:51:14.629Z,67.05
2023-02-27T19:54:16.747Z,67.25
2023-02-27T19:57:20.525Z,67.93
2023-02-27T20:00:23.205Z,68.10
2023-02-27T20:03:26.170Z,67.84
2023-02-27T20:06:33.235Z,68.21
2023-02-27T20:09:35.326Z,68.57
2023-02-27T20:12:40.330Z,68.71
2023-02-27T20:15:42.438Z,68.32
2023-02-27T20:18:46.239Z,68.72
2023-02-27T20:21:51.297Z,68.43
2023-02-27T20:24:56.694Z,68.09
2023-02-27T20:27:59.025Z,68.23
2023-02-27T20:31:01.548Z,67.63
2023-02-27T20:34:06.224Z,67.94
2023-02-27T20:37:08.457Z,68.19
2023-02-27T20:40:11.113Z,68.02
2023-02-27T20:43:14.245Z,68.58
2023-02-27T20:46:22.032Z,68.22
2023-02-27T20:49:25.050Z,67.84
2023-02-27T20:52:27.460Z,67.65
2023-02-27T20:55:30.070Z,67.13
2023-02-27T20:58:37.271Z,68.47
2023-02-27T21:01:39.793Z,67.54
2023-02-27T21:04:47.460Z,66.92
2023-02-27T21:07:50.148Z,66.29
2023-02-27T21:10:52.998Z,67.06
2023-02-27T21:13:56.788Z,66.38
2023-02-27T21:17:03.726Z,66.08
2023-02-27T21:20:10.851Z,67.10
2023-02-27T21:23:13.012Z,66.30
2023-02-27T21:26:28.108Z,66.48
2023-02-27T21:29:30.333Z,66.53
2023-02-27T21:32:41.486Z,66.42
2023-02-27T21:35:49.740Z,65.66
2023-02-27T21:38:55.737Z,65.81
2023-02-27T21:41:59.731Z,65.65
2023-02-27T21:45:01.856Z,65.48
2023-02-27T21:48:06.140Z,65.56
2023-02-27T21:51:08.143Z,64.97
2023-02-27T21:54:13.645Z,65.00
2023-02-27T21:57:16.927Z,65.19
2023-02-27T22:00:20.128Z,65.41
2023-02-27T22:03:23.860Z,65.13
2023-02-27T22:06:29.289Z,65.48
2023-02-27T22:09:32.022Z,64.78
2023-02-27T22:12:34.146Z,64.63
2023-02-27T22:15:36.535Z,64.90
2023-02-27T22:18:40.671Z,64.71
2023-02-27T22:21:42.891Z,64.43
2023-02-27T22:24:46.115Z,64.57
2023-02-27T22:27:49.233Z,64.49
2023-02-27T22:30:51.256Z,63.91
2023-02-27T22:33:55.684Z,63.61
2023-02-27T22:36:58.173Z,63.58
2023-02-27T22:40:00.241Z,63.66
2023-02-27T22:43:02.275Z,63.94
2023-02-27T22:46:04.758Z,63.47
2023-02-27T22:49:21.915Z,63.63
2023-02-27T22:52:25.517Z,63.26
2023-02-27T22:55:28.730Z,63.44
2023-02-27T22:58:36.055Z,63.55
2023-02-27T23:01:38.728Z,63.65
2023-02-27T23:04:40.795Z,63.59
2023-02-27T23:07:43.865Z,63.17
2023-02-27T23:10:47.002Z,63.42
2023-02-27T23:13:49.940Z,63.45
2023-02-27T23:16:51.995Z,62.87
2023-02-27T23:19:55.184Z,62.48
2023-02-27T23:22:57.555Z,62.70
2023-02-27T23:26:01.965Z,63.05
2023-02-27T23:29:04.862Z,62.96
2023-02-27T23:32:07.144Z,63.19
2023-02-27T23:35:12.710Z,62.91
2023-02-27T23:38:14.762Z,62.54
2023-02-27T23:41:17.981Z,63.03
2023-02-27T23:44:40.270Z,62.71
2023-02-27T23:47:43.228Z,63.09
2023-02-27T23:50:45.377Z,62.92
2023-02-27T23:53:47.925Z,63.42
2023-02-27T23:56:49.915Z,63.57
2023-02-27T23:59:51.906Z,62.66
